sensor_id;sensor_type;location;lat;lon;timestamp;P1;durP1;ratioP1;P2;durP2;ratioP2
63693;SDS011;49839;51.798;10.954;2023-07-31T00:01:55;7.80;;;1.52;;
63693;SDS011;49839;51.798;10.954;2023-07-31T00:04:24;7.93;;;1.65;;
63693;SDS011;49839;51.798;10.954;2023-07-31T00:06:52;3.45;;;1.05;;
63693;SDS011;49839;51.798;10.954;2023-07-31T00:09:20;7.55;;;1.25;;
63693;SDS011;49839;51.798;10.954;2023-07-31T00:11:47;6.72;;;1.00;;
63693;SDS011;49839;51.798;10.954;2023-07-31T00:14:15;3.55;;;1.02;;
63693;SDS011;49839;51.798;10.954;2023-07-31T00:16:43;6.97;;;1.23;;
63693;SDS011;49839;51.798;10.954;2023-07-31T00:19:10;4.53;;;1.13;;
63693;SDS011;49839;51.798;10.954;2023-07-31T00:21:39;6.30;;;1.08;;
63693;SDS011;49839;51.798;10.954;2023-07-31T00:24:07;5.85;;;1.30;;
63693;SDS011;49839;51.798;10.954;2023-07-31T00:26:35;9.48;;;1.45;;
63693;SDS011;49839;51.798;10.954;2023-07-31T00:29:03;4.57;;;1.23;;
63693;SDS011;49839;51.798;10.954;2023-07-31T00:31:30;6.30;;;1.20;;
63693;SDS011;49839;51.798;10.954;2023-07-31T00:33:58;4.47;;;1.10;;
63693;SDS011;49839;51.798;10.954;2023-07-31T00:36:26;4.80;;;0.88;;
63693;SDS011;49839;51.798;10.954;2023-07-31T00:38:55;4.65;;;1.05;;
63693;SDS011;49839;51.798;10.954;2023-07-31T00:41:23;5.20;;;1.00;;
63693;SDS011;49839;51.798;10.954;2023-07-31T00:43:50;7.22;;;1.25;;
63693;SDS011;49839;51.798;10.954;2023-07-31T00:46:18;5.78;;;1.15;;
63693;SDS011;49839;51.798;10.954;2023-07-31T00:48:47;3.28;;;1.02;;
63693;SDS011;49839;51.798;10.954;2023-07-31T00:51:15;3.88;;;0.90;;
63693;SDS011;49839;51.798;10.954;2023-07-31T00:53:43;4.80;;;1.00;;
63693;SDS011;49839;51.798;10.954;2023-07-31T00:58:41;2.15;;;0.70;;
63693;SDS011;49839;51.798;10.954;2023-07-31T01:01:09;2.72;;;0.90;;
63693;SDS011;49839;51.798;10.954;2023-07-31T01:03:37;4.75;;;1.08;;
63693;SDS011;49839;51.798;10.954;2023-07-31T01:06:09;2.35;;;0.80;;
63693;SDS011;49839;51.798;10.954;2023-07-31T01:08:44;3.35;;;0.93;;
63693;SDS011;49839;51.798;10.954;2023-07-31T01:11:21;4.05;;;0.70;;
63693;SDS011;49839;51.798;10.954;2023-07-31T01:13:54;3.67;;;0.77;;
63693;SDS011;49839;51.798;10.954;2023-07-31T01:16:22;4.38;;;0.60;;
63693;SDS011;49839;51.798;10.954;2023-07-31T01:18:50;2.55;;;0.75;;
63693;SDS011;49839;51.798;10.954;2023-07-31T01:21:30;1.95;;;0.63;;
63693;SDS011;49839;51.798;10.954;2023-07-31T01:24:20;2.97;;;0.50;;
63693;SDS011;49839;51.798;10.954;2023-07-31T01:26:53;3.22;;;0.70;;
63693;SDS011;49839;51.798;10.954;2023-07-31T01:29:28;2.45;;;0.60;;
63693;SDS011;49839;51.798;10.954;2023-07-31T01:32:03;2.85;;;0.90;;
63693;SDS011;49839;51.798;10.954;2023-07-31T01:34:33;2.90;;;0.50;;
63693;SDS011;49839;51.798;10.954;2023-07-31T01:37:03;1.80;;;0.60;;
63693;SDS011;49839;51.798;10.954;2023-07-31T01:39:31;3.15;;;0.60;;
63693;SDS011;49839;51.798;10.954;2023-07-31T01:42:00;2.38;;;0.60;;
63693;SDS011;49839;51.798;10.954;2023-07-31T01:44:28;3.22;;;0.57;;
63693;SDS011;49839;51.798;10.954;2023-07-31T01:46:57;2.57;;;0.53;;
63693;SDS011;49839;51.798;10.954;2023-07-31T01:51:54;1.67;;;0.40;;
63693;SDS011;49839;51.798;10.954;2023-07-31T01:54:22;1.70;;;0.52;;
63693;SDS011;49839;51.798;10.954;2023-07-31T01:56:50;1.60;;;0.40;;
63693;SDS011;49839;51.798;10.954;2023-07-31T01:59:19;0.90;;;0.45;;
63693;SDS011;49839;51.798;10.954;2023-07-31T02:01:46;0.93;;;0.32;;
63693;SDS011;49839;51.798;10.954;2023-07-31T02:04:15;0.85;;;0.40;;
63693;SDS011;49839;51.798;10.954;2023-07-31T02:06:42;2.05;;;0.38;;
63693;SDS011;49839;51.798;10.954;2023-07-31T02:09:11;2.20;;;0.60;;
63693;SDS011;49839;51.798;10.954;2023-07-31T02:11:39;0.73;;;0.45;;
63693;SDS011;49839;51.798;10.954;2023-07-31T02:14:07;1.80;;;0.40;;
63693;SDS011;49839;51.798;10.954;2023-07-31T02:16:36;1.15;;;0.40;;
63693;SDS011;49839;51.798;10.954;2023-07-31T02:19:04;0.68;;;0.50;;
63693;SDS011;49839;51.798;10.954;2023-07-31T02:21:32;3.03;;;0.60;;
63693;SDS011;49839;51.798;10.954;2023-07-31T02:23:59;0.32;;;0.30;;
63693;SDS011;49839;51.798;10.954;2023-07-31T02:26:27;2.30;;;0.40;;
63693;SDS011;49839;51.798;10.954;2023-07-31T02:28:55;0.55;;;0.30;;
63693;SDS011;49839;51.798;10.954;2023-07-31T02:31:22;0.60;;;0.25;;
63693;SDS011;49839;51.798;10.954;2023-07-31T02:33:51;0.70;;;0.30;;
63693;SDS011;49839;51.798;10.954;2023-07-31T02:36:19;1.52;;;1.08;;
63693;SDS011;49839;51.798;10.954;2023-07-31T02:38:47;0.68;;;0.30;;
63693;SDS011;49839;51.798;10.954;2023-07-31T02:41:14;1.67;;;0.45;;
63693;SDS011;49839;51.798;10.954;2023-07-31T02:43:42;0.68;;;0.28;;
63693;SDS011;49839;51.798;10.954;2023-07-31T02:46:10;2.22;;;0.47;;
63693;SDS011;49839;51.798;10.954;2023-07-31T02:48:37;1.33;;;0.40;;
63693;SDS011;49839;51.798;10.954;2023-07-31T02:51:06;0.88;;;0.45;;
63693;SDS011;49839;51.798;10.954;2023-07-31T02:53:34;0.95;;;0.50;;
63693;SDS011;49839;51.798;10.954;2023-07-31T02:56:02;0.55;;;0.40;;
63693;SDS011;49839;51.798;10.954;2023-07-31T02:58:30;1.27;;;0.50;;
63693;SDS011;49839;51.798;10.954;2023-07-31T03:00:58;1.80;;;0.50;;
63693;SDS011;49839;51.798;10.954;2023-07-31T03:03:26;2.30;;;0.77;;
63693;SDS011;49839;51.798;10.954;2023-07-31T03:05:54;1.67;;;0.57;;
63693;SDS011;49839;51.798;10.954;2023-07-31T03:08:23;1.95;;;0.57;;
63693;SDS011;49839;51.798;10.954;2023-07-31T03:10:51;2.83;;;0.80;;
63693;SDS011;49839;51.798;10.954;2023-07-31T03:13:18;2.70;;;0.82;;
63693;SDS011;49839;51.798;10.954;2023-07-31T03:15:46;4.03;;;0.90;;
63693;SDS011;49839;51.798;10.954;2023-07-31T03:18:14;2.05;;;0.90;;
63693;SDS011;49839;51.798;10.954;2023-07-31T03:20:42;4.13;;;1.02;;
63693;SDS011;49839;51.798;10.954;2023-07-31T03:23:09;5.90;;;0.98;;
63693;SDS011;49839;51.798;10.954;2023-07-31T03:25:39;4.82;;;1.60;;
63693;SDS011;49839;51.798;10.954;2023-07-31T03:28:09;3.05;;;0.90;;
63693;SDS011;49839;51.798;10.954;2023-07-31T03:30:36;4.30;;;1.10;;
63693;SDS011;49839;51.798;10.954;2023-07-31T03:33:05;3.95;;;1.13;;
63693;SDS011;49839;51.798;10.954;2023-07-31T03:35:32;5.63;;;1.00;;
63693;SDS011;49839;51.798;10.954;2023-07-31T03:38:00;4.82;;;1.10;;
63693;SDS011;49839;51.798;10.954;2023-07-31T03:40:28;3.15;;;1.30;;
63693;SDS011;49839;51.798;10.954;2023-07-31T03:42:57;5.32;;;1.48;;
63693;SDS011;49839;51.798;10.954;2023-07-31T03:45:25;4.45;;;1.42;;
63693;SDS011;49839;51.798;10.954;2023-07-31T03:47:52;5.65;;;1.65;;
63693;SDS011;49839;51.798;10.954;2023-07-31T03:50:21;3.50;;;1.10;;
63693;SDS011;49839;51.798;10.954;2023-07-31T03:52:48;5.63;;;1.30;;
63693;SDS011;49839;51.798;10.954;2023-07-31T03:55:16;3.90;;;1.30;;
63693;SDS011;49839;51.798;10.954;2023-07-31T03:57:44;4.05;;;1.33;;
63693;SDS011;49839;51.798;10.954;2023-07-31T04:00:13;5.70;;;1.30;;
63693;SDS011;49839;51.798;10.954;2023-07-31T04:02:41;2.75;;;1.20;;
63693;SDS011;49839;51.798;10.954;2023-07-31T04:05:09;4.32;;;1.25;;
63693;SDS011;49839;51.798;10.954;2023-07-31T04:07:37;3.45;;;1.08;;
63693;SDS011;49839;51.798;10.954;2023-07-31T04:10:05;2.75;;;1.02;;
63693;SDS011;49839;51.798;10.954;2023-07-31T04:12:34;2.97;;;1.10;;
63693;SDS011;49839;51.798;10.954;2023-07-31T04:15:01;2.28;;;0.90;;
63693;SDS011;49839;51.798;10.954;2023-07-31T04:17:30;3.00;;;1.20;;
63693;SDS011;49839;51.798;10.954;2023-07-31T04:19:58;5.47;;;1.10;;
63693;SDS011;49839;51.798;10.954;2023-07-31T04:22:26;2.95;;;1.02;;
63693;SDS011;49839;51.798;10.954;2023-07-31T04:24:54;2.97;;;0.93;;
63693;SDS011;49839;51.798;10.954;2023-07-31T04:27:22;2.83;;;1.00;;
63693;SDS011;49839;51.798;10.954;2023-07-31T04:29:50;3.25;;;1.00;;
63693;SDS011;49839;51.798;10.954;2023-07-31T04:32:17;3.17;;;1.77;;
63693;SDS011;49839;51.798;10.954;2023-07-31T04:34:47;2.10;;;0.90;;
63693;SDS011;49839;51.798;10.954;2023-07-31T04:37:15;1.58;;;0.70;;
63693;SDS011;49839;51.798;10.954;2023-07-31T04:39:43;3.55;;;1.08;;
63693;SDS011;49839;51.798;10.954;2023-07-31T04:42:10;2.47;;;0.68;;
63693;SDS011;49839;51.798;10.954;2023-07-31T04:44:38;2.17;;;0.80;;
63693;SDS011;49839;51.798;10.954;2023-07-31T04:47:06;2.75;;;0.90;;
63693;SDS011;49839;51.798;10.954;2023-07-31T04:49:34;1.88;;;0.80;;
63693;SDS011;49839;51.798;10.954;2023-07-31T04:52:03;2.33;;;0.90;;
63693;SDS011;49839;51.798;10.954;2023-07-31T04:54:31;2.80;;;0.80;;
63693;SDS011;49839;51.798;10.954;2023-07-31T04:56:59;5.78;;;1.00;;
63693;SDS011;49839;51.798;10.954;2023-07-31T04:59:27;3.15;;;1.10;;
63693;SDS011;49839;51.798;10.954;2023-07-31T05:01:55;5.35;;;1.27;;
63693;SDS011;49839;51.798;10.954;2023-07-31T05:04:22;3.30;;;1.30;;
63693;SDS011;49839;51.798;10.954;2023-07-31T05:06:50;5.07;;;1.35;;
63693;SDS011;49839;51.798;10.954;2023-07-31T05:09:19;5.88;;;1.42;;
63693;SDS011;49839;51.798;10.954;2023-07-31T05:11:47;6.38;;;1.23;;
63693;SDS011;49839;51.798;10.954;2023-07-31T05:14:14;4.28;;;1.77;;
63693;SDS011;49839;51.798;10.954;2023-07-31T05:16:42;3.20;;;1.40;;
63693;SDS011;49839;51.798;10.954;2023-07-31T05:19:10;5.18;;;1.60;;
63693;SDS011;49839;51.798;10.954;2023-07-31T05:21:38;4.05;;;1.73;;
63693;SDS011;49839;51.798;10.954;2023-07-31T05:24:05;6.38;;;1.88;;
63693;SDS011;49839;51.798;10.954;2023-07-31T05:26:35;5.15;;;1.60;;
63693;SDS011;49839;51.798;10.954;2023-07-31T05:29:04;3.72;;;1.70;;
63693;SDS011;49839;51.798;10.954;2023-07-31T05:31:31;4.95;;;1.55;;
63693;SDS011;49839;51.798;10.954;2023-07-31T05:33:59;4.25;;;1.88;;
63693;SDS011;49839;51.798;10.954;2023-07-31T05:36:27;6.10;;;1.83;;
63693;SDS011;49839;51.798;10.954;2023-07-31T05:38:55;5.07;;;1.70;;
63693;SDS011;49839;51.798;10.954;2023-07-31T05:41:22;7.75;;;1.63;;
63693;SDS011;49839;51.798;10.954;2023-07-31T05:43:51;4.05;;;1.75;;
63693;SDS011;49839;51.798;10.954;2023-07-31T05:46:19;5.40;;;2.08;;
63693;SDS011;49839;51.798;10.954;2023-07-31T05:48:47;5.07;;;1.85;;
63693;SDS011;49839;51.798;10.954;2023-07-31T05:51:14;3.40;;;1.63;;
63693;SDS011;49839;51.798;10.954;2023-07-31T05:53:42;4.38;;;1.70;;
63693;SDS011;49839;51.798;10.954;2023-07-31T05:56:10;3.85;;;1.45;;
63693;SDS011;49839;51.798;10.954;2023-07-31T05:58:38;4.55;;;1.73;;
63693;SDS011;49839;51.798;10.954;2023-07-31T06:01:07;4.25;;;1.77;;
63693;SDS011;49839;51.798;10.954;2023-07-31T06:03:35;4.30;;;1.35;;
63693;SDS011;49839;51.798;10.954;2023-07-31T06:06:03;3.60;;;1.80;;
63693;SDS011;49839;51.798;10.954;2023-07-31T06:08:30;3.55;;;1.48;;
63693;SDS011;49839;51.798;10.954;2023-07-31T06:10:58;4.63;;;1.50;;
63693;SDS011;49839;51.798;10.954;2023-07-31T06:13:26;4.30;;;1.60;;
63693;SDS011;49839;51.798;10.954;2023-07-31T06:15:53;4.85;;;1.67;;
63693;SDS011;49839;51.798;10.954;2023-07-31T06:18:23;3.20;;;1.42;;
63693;SDS011;49839;51.798;10.954;2023-07-31T06:20:50;3.63;;;1.25;;
63693;SDS011;49839;51.798;10.954;2023-07-31T06:23:20;5.47;;;1.65;;
63693;SDS011;49839;51.798;10.954;2023-07-31T06:25:47;5.05;;;2.05;;
63693;SDS011;49839;51.798;10.954;2023-07-31T06:28:15;4.05;;;1.77;;
63693;SDS011;49839;51.798;10.954;2023-07-31T06:30:43;4.35;;;1.40;;
63693;SDS011;49839;51.798;10.954;2023-07-31T06:33:11;5.30;;;1.42;;
63693;SDS011;49839;51.798;10.954;2023-07-31T06:35:40;4.72;;;1.65;;
63693;SDS011;49839;51.798;10.954;2023-07-31T06:38:07;3.13;;;1.30;;
63693;SDS011;49839;51.798;10.954;2023-07-31T06:40:35;3.53;;;1.20;;
63693;SDS011;49839;51.798;10.954;2023-07-31T06:43:03;3.67;;;1.50;;
63693;SDS011;49839;51.798;10.954;2023-07-31T06:45:34;5.88;;;1.88;;
63693;SDS011;49839;51.798;10.954;2023-07-31T06:48:02;5.30;;;1.90;;
63693;SDS011;49839;51.798;10.954;2023-07-31T06:50:31;5.90;;;1.90;;
63693;SDS011;49839;51.798;10.954;2023-07-31T06:53:00;3.33;;;1.40;;
63693;SDS011;49839;51.798;10.954;2023-07-31T06:55:29;4.20;;;1.73;;
63693;SDS011;49839;51.798;10.954;2023-07-31T06:57:56;6.55;;;2.03;;
63693;SDS011;49839;51.798;10.954;2023-07-31T07:00:24;4.43;;;1.80;;
63693;SDS011;49839;51.798;10.954;2023-07-31T07:02:52;5.80;;;2.17;;
63693;SDS011;49839;51.798;10.954;2023-07-31T07:05:19;4.75;;;2.17;;
63693;SDS011;49839;51.798;10.954;2023-07-31T07:07:49;6.43;;;2.10;;
63693;SDS011;49839;51.798;10.954;2023-07-31T07:12:47;6.32;;;1.90;;
63693;SDS011;49839;51.798;10.954;2023-07-31T07:15:15;5.35;;;1.90;;
63693;SDS011;49839;51.798;10.954;2023-07-31T07:17:43;6.07;;;2.08;;
63693;SDS011;49839;51.798;10.954;2023-07-31T07:20:11;5.30;;;1.90;;
63693;SDS011;49839;51.798;10.954;2023-07-31T07:22:38;4.70;;;1.83;;
63693;SDS011;49839;51.798;10.954;2023-07-31T07:25:09;5.00;;;1.67;;
63693;SDS011;49839;51.798;10.954;2023-07-31T07:27:38;5.47;;;1.77;;
63693;SDS011;49839;51.798;10.954;2023-07-31T07:30:06;7.57;;;2.20;;
63693;SDS011;49839;51.798;10.954;2023-07-31T07:32:35;6.63;;;1.77;;
63693;SDS011;49839;51.798;10.954;2023-07-31T07:35:03;5.20;;;1.98;;
63693;SDS011;49839;51.798;10.954;2023-07-31T07:37:31;6.83;;;1.87;;
63693;SDS011;49839;51.798;10.954;2023-07-31T07:40:00;5.78;;;2.00;;
63693;SDS011;49839;51.798;10.954;2023-07-31T07:42:27;4.68;;;1.92;;
63693;SDS011;49839;51.798;10.954;2023-07-31T07:44:57;6.20;;;1.65;;
63693;SDS011;49839;51.798;10.954;2023-07-31T07:47:25;7.07;;;1.98;;
63693;SDS011;49839;51.798;10.954;2023-07-31T07:49:54;4.38;;;1.70;;
63693;SDS011;49839;51.798;10.954;2023-07-31T07:52:22;6.90;;;1.83;;
63693;SDS011;49839;51.798;10.954;2023-07-31T07:54:50;7.30;;;2.08;;
63693;SDS011;49839;51.798;10.954;2023-07-31T07:57:17;5.57;;;1.83;;
63693;SDS011;49839;51.798;10.954;2023-07-31T07:59:46;6.35;;;2.10;;
63693;SDS011;49839;51.798;10.954;2023-07-31T08:02:15;7.20;;;1.95;;
63693;SDS011;49839;51.798;10.954;2023-07-31T08:04:42;4.75;;;1.95;;
63693;SDS011;49839;51.798;10.954;2023-07-31T08:07:10;4.55;;;1.90;;
63693;SDS011;49839;51.798;10.954;2023-07-31T08:09:38;7.20;;;2.10;;
63693;SDS011;49839;51.798;10.954;2023-07-31T08:12:06;5.82;;;1.80;;
63693;SDS011;49839;51.798;10.954;2023-07-31T08:14:34;6.20;;;1.83;;
63693;SDS011;49839;51.798;10.954;2023-07-31T08:17:03;6.32;;;2.50;;
63693;SDS011;49839;51.798;10.954;2023-07-31T08:19:32;4.97;;;2.10;;
63693;SDS011;49839;51.798;10.954;2023-07-31T08:22:00;9.07;;;2.22;;
63693;SDS011;49839;51.798;10.954;2023-07-31T08:24:28;5.50;;;2.00;;
63693;SDS011;49839;51.798;10.954;2023-07-31T08:26:56;5.30;;;1.83;;
63693;SDS011;49839;51.798;10.954;2023-07-31T08:29:24;4.57;;;2.00;;
63693;SDS011;49839;51.798;10.954;2023-07-31T08:31:52;5.93;;;2.07;;
63693;SDS011;49839;51.798;10.954;2023-07-31T08:34:19;7.55;;;2.00;;
63693;SDS011;49839;51.798;10.954;2023-07-31T08:36:48;4.90;;;2.08;;
63693;SDS011;49839;51.798;10.954;2023-07-31T08:41:44;5.88;;;1.63;;
63693;SDS011;49839;51.798;10.954;2023-07-31T08:44:12;10.38;;;2.08;;
63693;SDS011;49839;51.798;10.954;2023-07-31T08:46:41;6.20;;;1.98;;
63693;SDS011;49839;51.798;10.954;2023-07-31T08:49:09;5.70;;;1.65;;
63693;SDS011;49839;51.798;10.954;2023-07-31T08:51:38;6.63;;;1.80;;
63693;SDS011;49839;51.798;10.954;2023-07-31T08:54:09;4.45;;;1.45;;
63693;SDS011;49839;51.798;10.954;2023-07-31T08:56:37;5.25;;;1.90;;
63693;SDS011;49839;51.798;10.954;2023-07-31T08:59:07;3.40;;;1.35;;
63693;SDS011;49839;51.798;10.954;2023-07-31T09:01:37;5.63;;;2.00;;
63693;SDS011;49839;51.798;10.954;2023-07-31T09:04:11;4.30;;;1.50;;
63693;SDS011;49839;51.798;10.954;2023-07-31T09:06:42;4.75;;;1.60;;
63693;SDS011;49839;51.798;10.954;2023-07-31T09:09:13;4.30;;;1.35;;
63693;SDS011;49839;51.798;10.954;2023-07-31T09:11:41;3.30;;;1.00;;
63693;SDS011;49839;51.798;10.954;2023-07-31T09:14:09;1.77;;;0.90;;
63693;SDS011;49839;51.798;10.954;2023-07-31T09:16:51;2.35;;;1.02;;
63693;SDS011;49839;51.798;10.954;2023-07-31T09:19:26;3.33;;;1.00;;
63693;SDS011;49839;51.798;10.954;2023-07-31T09:21:54;3.10;;;0.80;;
63693;SDS011;49839;51.798;10.954;2023-07-31T09:24:27;2.15;;;1.00;;
63693;SDS011;49839;51.798;10.954;2023-07-31T09:26:56;3.63;;;1.20;;
63693;SDS011;49839;51.798;10.954;2023-07-31T09:31:54;5.07;;;1.05;;
63693;SDS011;49839;51.798;10.954;2023-07-31T09:34:27;3.15;;;1.45;;
63693;SDS011;49839;51.798;10.954;2023-07-31T09:36:57;7.97;;;1.30;;
63693;SDS011;49839;51.798;10.954;2023-07-31T09:39:29;3.13;;;1.02;;
63693;SDS011;49839;51.798;10.954;2023-07-31T09:41:58;4.90;;;1.40;;
63693;SDS011;49839;51.798;10.954;2023-07-31T09:44:37;2.53;;;1.30;;
63693;SDS011;49839;51.798;10.954;2023-07-31T09:47:06;4.25;;;1.30;;
63693;SDS011;49839;51.798;10.954;2023-07-31T09:49:47;4.50;;;1.52;;
63693;SDS011;49839;51.798;10.954;2023-07-31T09:52:15;3.75;;;1.60;;
63693;SDS011;49839;51.798;10.954;2023-07-31T09:54:44;3.35;;;1.30;;
63693;SDS011;49839;51.798;10.954;2023-07-31T09:59:43;4.60;;;1.90;;
63693;SDS011;49839;51.798;10.954;2023-07-31T10:02:12;4.37;;;1.63;;
63693;SDS011;49839;51.798;10.954;2023-07-31T10:04:42;5.82;;;1.83;;
63693;SDS011;49839;51.798;10.954;2023-07-31T10:07:12;6.10;;;1.50;;
63693;SDS011;49839;51.798;10.954;2023-07-31T10:09:45;6.57;;;1.90;;
63693;SDS011;49839;51.798;10.954;2023-07-31T10:12:14;8.98;;;2.00;;
63693;SDS011;49839;51.798;10.954;2023-07-31T10:14:46;4.30;;;1.70;;
63693;SDS011;49839;51.798;10.954;2023-07-31T10:17:14;4.20;;;1.63;;
63693;SDS011;49839;51.798;10.954;2023-07-31T10:19:44;5.90;;;1.65;;
63693;SDS011;49839;51.798;10.954;2023-07-31T10:22:13;3.63;;;1.50;;
63693;SDS011;49839;51.798;10.954;2023-07-31T10:24:46;3.38;;;1.50;;
63693;SDS011;49839;51.798;10.954;2023-07-31T10:29:41;4.13;;;1.67;;
63693;SDS011;49839;51.798;10.954;2023-07-31T10:34:39;4.80;;;1.52;;
63693;SDS011;49839;51.798;10.954;2023-07-31T10:37:20;4.28;;;1.88;;
63693;SDS011;49839;51.798;10.954;2023-07-31T10:40:01;6.32;;;1.85;;
63693;SDS011;49839;51.798;10.954;2023-07-31T10:42:33;4.45;;;1.60;;
63693;SDS011;49839;51.798;10.954;2023-07-31T10:45:03;5.32;;;1.85;;
63693;SDS011;49839;51.798;10.954;2023-07-31T10:47:36;3.28;;;1.70;;
63693;SDS011;49839;51.798;10.954;2023-07-31T10:50:11;4.60;;;1.80;;
63693;SDS011;49839;51.798;10.954;2023-07-31T10:52:46;3.88;;;1.55;;
63693;SDS011;49839;51.798;10.954;2023-07-31T10:57:55;4.35;;;1.75;;
63693;SDS011;49839;51.798;10.954;2023-07-31T11:00:25;3.55;;;1.60;;
63693;SDS011;49839;51.798;10.954;2023-07-31T11:03:01;3.90;;;1.58;;
63693;SDS011;49839;51.798;10.954;2023-07-31T11:05:48;6.75;;;1.88;;
63693;SDS011;49839;51.798;10.954;2023-07-31T11:08:20;4.85;;;1.80;;
63693;SDS011;49839;51.798;10.954;2023-07-31T11:11:04;6.05;;;1.85;;
63693;SDS011;49839;51.798;10.954;2023-07-31T11:13:33;4.18;;;1.63;;
63693;SDS011;49839;51.798;10.954;2023-07-31T11:16:09;4.88;;;2.05;;
63693;SDS011;49839;51.798;10.954;2023-07-31T11:18:39;3.00;;;1.50;;
63693;SDS011;49839;51.798;10.954;2023-07-31T11:21:08;6.43;;;1.77;;
63693;SDS011;49839;51.798;10.954;2023-07-31T11:23:40;6.25;;;1.90;;
63693;SDS011;49839;51.798;10.954;2023-07-31T11:26:09;6.83;;;2.00;;
63693;SDS011;49839;51.798;10.954;2023-07-31T11:28:38;4.80;;;1.77;;
63693;SDS011;49839;51.798;10.954;2023-07-31T11:31:09;3.25;;;1.40;;
63693;SDS011;49839;51.798;10.954;2023-07-31T11:33:37;3.53;;;1.42;;
63693;SDS011;49839;51.798;10.954;2023-07-31T11:36:05;3.63;;;1.58;;
63693;SDS011;49839;51.798;10.954;2023-07-31T11:38:33;3.97;;;1.67;;
63693;SDS011;49839;51.798;10.954;2023-07-31T11:41:04;4.18;;;1.48;;
63693;SDS011;49839;51.798;10.954;2023-07-31T11:43:33;4.72;;;1.63;;
63693;SDS011;49839;51.798;10.954;2023-07-31T11:46:02;6.82;;;1.73;;
63693;SDS011;49839;51.798;10.954;2023-07-31T11:48:39;3.30;;;1.45;;
63693;SDS011;49839;51.798;10.954;2023-07-31T11:51:08;5.22;;;1.92;;
63693;SDS011;49839;51.798;10.954;2023-07-31T11:53:39;3.47;;;1.50;;
63693;SDS011;49839;51.798;10.954;2023-07-31T11:56:10;5.70;;;1.80;;
63693;SDS011;49839;51.798;10.954;2023-07-31T11:58:42;4.88;;;1.65;;
63693;SDS011;49839;51.798;10.954;2023-07-31T12:01:13;8.90;;;2.13;;
63693;SDS011;49839;51.798;10.954;2023-07-31T12:03:43;4.85;;;2.15;;
63693;SDS011;49839;51.798;10.954;2023-07-31T12:06:12;5.95;;;1.67;;
63693;SDS011;49839;51.798;10.954;2023-07-31T12:08:40;6.63;;;1.95;;
63693;SDS011;49839;51.798;10.954;2023-07-31T12:11:11;4.40;;;1.80;;
63693;SDS011;49839;51.798;10.954;2023-07-31T12:13:39;5.95;;;2.13;;
63693;SDS011;49839;51.798;10.954;2023-07-31T12:16:10;4.88;;;2.03;;
63693;SDS011;49839;51.798;10.954;2023-07-31T12:18:38;5.43;;;1.92;;
63693;SDS011;49839;51.798;10.954;2023-07-31T12:21:08;5.80;;;2.08;;
63693;SDS011;49839;51.798;10.954;2023-07-31T12:23:37;5.28;;;1.85;;
63693;SDS011;49839;51.798;10.954;2023-07-31T12:26:09;5.80;;;2.10;;
63693;SDS011;49839;51.798;10.954;2023-07-31T12:28:39;5.03;;;2.00;;
63693;SDS011;49839;51.798;10.954;2023-07-31T12:31:13;3.92;;;1.98;;
63693;SDS011;49839;51.798;10.954;2023-07-31T12:33:46;6.50;;;2.00;;
63693;SDS011;49839;51.798;10.954;2023-07-31T12:36:16;5.57;;;2.10;;
63693;SDS011;49839;51.798;10.954;2023-07-31T12:38:47;4.03;;;1.80;;
63693;SDS011;49839;51.798;10.954;2023-07-31T12:41:17;5.80;;;1.77;;
63693;SDS011;49839;51.798;10.954;2023-07-31T12:43:45;5.22;;;1.77;;
63693;SDS011;49839;51.798;10.954;2023-07-31T12:46:14;4.87;;;2.10;;
63693;SDS011;49839;51.798;10.954;2023-07-31T12:48:43;4.25;;;1.88;;
63693;SDS011;49839;51.798;10.954;2023-07-31T12:51:11;6.10;;;2.13;;
63693;SDS011;49839;51.798;10.954;2023-07-31T12:53:39;4.05;;;1.70;;
63693;SDS011;49839;51.798;10.954;2023-07-31T12:56:07;3.78;;;1.48;;
63693;SDS011;49839;51.798;10.954;2023-07-31T12:58:36;7.05;;;2.05;;
63693;SDS011;49839;51.798;10.954;2023-07-31T13:01:04;5.88;;;1.67;;
63693;SDS011;49839;51.798;10.954;2023-07-31T13:03:34;3.80;;;1.67;;
63693;SDS011;49839;51.798;10.954;2023-07-31T13:06:05;5.97;;;1.60;;
63693;SDS011;49839;51.798;10.954;2023-07-31T13:08:35;4.60;;;1.63;;
63693;SDS011;49839;51.798;10.954;2023-07-31T13:11:02;4.53;;;1.52;;
63693;SDS011;49839;51.798;10.954;2023-07-31T13:13:30;5.15;;;1.60;;
63693;SDS011;49839;51.798;10.954;2023-07-31T13:15:58;4.57;;;1.60;;
63693;SDS011;49839;51.798;10.954;2023-07-31T13:18:26;3.10;;;1.50;;
63693;SDS011;49839;51.798;10.954;2023-07-31T13:20:55;4.78;;;1.92;;
63693;SDS011;49839;51.798;10.954;2023-07-31T13:25:52;4.03;;;1.55;;
63693;SDS011;49839;51.798;10.954;2023-07-31T13:28:20;4.82;;;1.65;;
63693;SDS011;49839;51.798;10.954;2023-07-31T13:30:48;6.90;;;1.52;;
63693;SDS011;49839;51.798;10.954;2023-07-31T13:33:17;3.65;;;1.48;;
63693;SDS011;49839;51.798;10.954;2023-07-31T13:36:02;5.63;;;1.50;;
